createdAt,value
2019-02-15T00:02:00.707Z,19.33
2019-02-15T00:04:31.284Z,16.63
2019-02-15T00:07:01.857Z,15.10
2019-02-15T00:09:32.969Z,18.07
2019-02-15T00:12:03.346Z,14.20
2019-02-15T00:14:48.734Z,15.17
2019-02-15T00:17:20.968Z,15.07
2019-02-15T00:19:53.130Z,17.63
2019-02-15T00:22:23.765Z,14.80
2019-02-15T00:24:54.345Z,16.53
2019-02-15T00:27:24.756Z,17.93
2019-02-15T00:29:55.144Z,17.27
2019-02-15T00:32:25.602Z,15.27
2019-02-15T00:34:56.204Z,15.83
2019-02-15T00:37:26.748Z,18.00
2019-02-15T00:39:58.063Z,17.60
2019-02-15T00:42:28.431Z,17.50
2019-02-15T00:44:58.941Z,15.93
2019-02-15T00:47:39.756Z,16.93
2019-02-15T00:50:12.128Z,14.60
2019-02-15T00:52:46.997Z,13.50
2019-02-15T00:55:35.099Z,13.50
2019-02-15T00:58:10.048Z,12.40
2019-02-15T01:00:42.261Z,12.07
2019-02-15T01:03:28.931Z,12.87
2019-02-15T01:06:17.077Z,15.57
2019-02-15T01:08:49.224Z,11.37
2019-02-15T01:11:21.374Z,11.40
2019-02-15T01:13:51.953Z,13.13
2019-02-15T01:16:23.764Z,12.10
2019-02-15T01:18:55.288Z,13.03
2019-02-15T01:21:25.855Z,12.60
2019-02-15T01:23:56.301Z,12.93
2019-02-15T01:26:34.286Z,13.10
2019-02-15T01:29:06.493Z,16.83
2019-02-15T01:31:39.278Z,15.37
2019-02-15T01:34:20.359Z,12.27
2019-02-15T01:36:58.360Z,13.47
2019-02-15T01:39:30.362Z,13.53
2019-02-15T01:42:20.512Z,12.50
2019-02-15T01:44:52.686Z,14.47
2019-02-15T01:47:23.403Z,14.70
2019-02-15T01:49:53.833Z,14.20
2019-02-15T01:52:24.365Z,15.43
2019-02-15T01:54:54.907Z,13.43
2019-02-15T01:57:25.431Z,14.33
2019-02-15T01:59:55.840Z,15.87
2019-02-15T02:02:27.983Z,13.33
2019-02-15T02:04:58.409Z,13.30
2019-02-15T02:07:28.946Z,14.77
2019-02-15T02:09:59.458Z,13.80
2019-02-15T02:12:30.000Z,13.47
2019-02-15T02:15:00.549Z,13.93
2019-02-15T02:17:32.800Z,15.37
2019-02-15T02:20:03.671Z,15.17
2019-02-15T02:22:34.110Z,12.67
2019-02-15T02:25:05.861Z,18.53
2019-02-15T02:27:36.493Z,12.50
2019-02-15T02:30:09.604Z,16.63
2019-02-15T02:32:40.372Z,15.80
2019-02-15T02:35:10.905Z,17.93
2019-02-15T02:37:41.364Z,14.77
2019-02-15T02:40:11.806Z,14.90
2019-02-15T02:42:42.541Z,14.67
2019-02-15T02:45:13.147Z,15.73
2019-02-15T02:47:44.625Z,16.03
2019-02-15T02:50:15.202Z,19.90
2019-02-15T02:52:45.659Z,17.73
2019-02-15T02:55:16.277Z,14.73
2019-02-15T02:57:46.854Z,16.83
2019-02-15T03:00:17.399Z,16.10
2019-02-15T03:02:48.072Z,14.63
2019-02-15T03:05:18.576Z,14.80
2019-02-15T03:07:49.040Z,15.37
2019-02-15T03:10:21.006Z,13.77
2019-02-15T03:12:52.131Z,12.50
2019-02-15T03:15:22.524Z,14.37
2019-02-15T03:17:55.164Z,19.40
2019-02-15T03:20:31.293Z,14.13
2019-02-15T03:22:57.833Z,15.37
2019-02-15T03:25:28.302Z,14.60
2019-02-15T03:27:58.827Z,14.00
2019-02-15T03:30:29.371Z,13.33
2019-02-15T03:33:00.588Z,11.87
2019-02-15T03:35:31.076Z,11.43
2019-02-15T03:38:03.327Z,12.77
2019-02-15T03:40:35.567Z,12.27
2019-02-15T03:43:06.614Z,14.83
2019-02-15T03:45:38.130Z,12.57
2019-02-15T03:48:08.636Z,14.10
2019-02-15T03:50:39.122Z,15.27
2019-02-15T03:53:09.772Z,13.23
2019-02-15T03:55:40.266Z,15.70
2019-02-15T03:58:10.853Z,14.40
2019-02-15T04:00:41.464Z,16.77
2019-02-15T04:03:12.196Z,13.13
2019-02-15T04:05:42.644Z,14.47
2019-02-15T04:08:13.276Z,13.33
2019-02-15T04:10:43.816Z,10.70
2019-02-15T04:13:14.362Z,9.40
2019-02-15T04:15:44.896Z,9.20
2019-02-15T04:18:16.316Z,9.77
2019-02-15T04:20:46.807Z,11.93
2019-02-15T04:23:17.499Z,11.60
2019-02-15T04:25:48.163Z,11.03
2019-02-15T04:28:18.718Z,12.80
2019-02-15T04:30:49.181Z,19.93
2019-02-15T04:33:19.639Z,14.90
2019-02-15T04:35:50.128Z,15.43
2019-02-15T04:38:20.746Z,18.00
2019-02-15T04:40:51.128Z,17.43
2019-02-15T04:43:21.664Z,16.97
2019-02-15T04:45:52.144Z,18.83
2019-02-15T04:48:22.806Z,13.33
2019-02-15T04:50:53.515Z,15.67
2019-02-15T04:53:24.233Z,15.87
2019-02-15T04:55:54.758Z,16.90
2019-02-15T04:58:25.445Z,15.97
2019-02-15T05:00:55.908Z,14.77
2019-02-15T05:03:26.299Z,16.80
2019-02-15T05:05:56.905Z,19.17
2019-02-15T05:08:27.502Z,17.27
2019-02-15T05:10:58.258Z,17.63
2019-02-15T05:13:28.960Z,19.33
2019-02-15T05:15:59.586Z,16.97
2019-02-15T05:18:31.171Z,19.10
2019-02-15T05:21:01.682Z,18.00
2019-02-15T05:23:32.156Z,16.77
2019-02-15T05:26:02.779Z,22.77
2019-02-15T05:28:33.315Z,20.00
2019-02-15T05:31:03.930Z,16.47
2019-02-15T05:33:35.631Z,17.70
2019-02-15T05:36:06.590Z,18.10
2019-02-15T05:38:37.148Z,18.37
2019-02-15T05:41:07.891Z,17.77
2019-02-15T05:43:38.369Z,16.27
2019-02-15T05:46:09.003Z,18.93
2019-02-15T05:48:39.384Z,18.57
2019-02-15T05:51:09.907Z,18.60
2019-02-15T05:53:40.420Z,18.43
2019-02-15T05:56:11.036Z,20.43
2019-02-15T05:58:41.590Z,20.97
2019-02-15T06:01:12.671Z,20.50
2019-02-15T06:03:44.258Z,21.63
2019-02-15T06:06:15.092Z,18.63
2019-02-15T06:08:46.508Z,14.57
2019-02-15T06:11:16.956Z,21.70
2019-02-15T06:13:47.534Z,18.17
2019-02-15T06:16:18.015Z,19.53
2019-02-15T06:18:49.341Z,22.03
2019-02-15T06:21:19.828Z,17.77
2019-02-15T06:23:50.511Z,16.97
2019-02-15T06:26:21.232Z,19.20
2019-02-15T06:29:01.130Z,23.83
2019-02-15T06:31:31.792Z,21.50
2019-02-15T06:34:02.281Z,20.63
2019-02-15T06:36:34.674Z,18.67
2019-02-15T06:39:07.372Z,22.33
2019-02-15T06:41:37.998Z,20.90
2019-02-15T06:44:08.657Z,18.40
2019-02-15T06:46:39.102Z,21.10
2019-02-15T06:49:09.605Z,18.70
2019-02-15T06:51:40.158Z,19.53
2019-02-15T06:54:11.424Z,18.30
2019-02-15T06:56:41.799Z,20.60
2019-02-15T06:59:33.284Z,19.93
2019-02-15T07:02:05.505Z,21.30
2019-02-15T07:04:37.572Z,20.77
2019-02-15T07:07:07.952Z,23.67
2019-02-15T07:09:39.669Z,19.73
2019-02-15T07:12:10.159Z,17.93
2019-02-15T07:14:40.552Z,16.33
2019-02-15T07:17:11.161Z,18.50
2019-02-15T07:19:43.755Z,18.60
2019-02-15T07:22:14.552Z,17.53
2019-02-15T07:24:47.141Z,15.53
2019-02-15T07:27:17.332Z,19.43
2019-02-15T07:29:47.857Z,20.97
2019-02-15T07:32:18.444Z,20.77
2019-02-15T07:34:48.849Z,24.77
2019-02-15T07:37:19.283Z,26.67
2019-02-15T07:39:49.829Z,31.47
2019-02-15T07:42:21.261Z,27.20
2019-02-15T07:44:51.756Z,24.93
2019-02-15T07:47:22.377Z,27.07
2019-02-15T07:49:53.076Z,24.40
2019-02-15T07:52:23.518Z,19.73
2019-02-15T07:54:54.132Z,19.57
2019-02-15T07:57:24.654Z,18.17
2019-02-15T07:59:55.166Z,17.70
2019-02-15T08:02:25.591Z,20.07
2019-02-15T08:04:56.180Z,14.33
2019-02-15T08:07:26.898Z,14.67
2019-02-15T08:09:58.392Z,14.30
2019-02-15T08:12:28.906Z,14.90
2019-02-15T08:14:59.498Z,12.90
2019-02-15T08:17:29.978Z,11.60
2019-02-15T08:20:01.399Z,11.30
2019-02-15T08:22:32.017Z,14.17
2019-02-15T08:25:02.980Z,14.90
2019-02-15T08:27:33.497Z,14.03
2019-02-15T08:30:04.446Z,12.00
2019-02-15T08:32:35.071Z,11.40
2019-02-15T08:35:08.258Z,17.40
2019-02-15T08:37:38.888Z,16.77
2019-02-15T08:40:11.328Z,12.33
2019-02-15T08:42:43.083Z,10.27
2019-02-15T08:45:14.315Z,12.40
2019-02-15T08:47:44.980Z,14.47
2019-02-15T08:50:15.541Z,11.83
2019-02-15T08:52:46.300Z,13.23
2019-02-15T08:55:17.688Z,13.27
2019-02-15T08:57:48.236Z,12.57
2019-02-15T09:00:18.991Z,10.87
2019-02-15T09:02:49.441Z,11.50
2019-02-15T09:05:20.191Z,8.93
2019-02-15T09:07:50.811Z,8.03
2019-02-15T09:10:21.532Z,7.03
2019-02-15T09:12:52.168Z,6.97
2019-02-15T09:15:25.839Z,8.50
2019-02-15T09:17:56.380Z,8.30
2019-02-15T09:20:27.956Z,6.10
2019-02-15T09:22:59.611Z,8.93
2019-02-15T09:25:30.193Z,7.03
2019-02-15T09:28:20.090Z,9.83
2019-02-15T09:30:51.604Z,8.90
2019-02-15T09:33:22.162Z,7.67
2019-02-15T09:35:52.754Z,7.40
2019-02-15T09:38:23.307Z,9.60
2019-02-15T09:40:53.789Z,7.83
2019-02-15T09:43:24.303Z,8.57
2019-02-15T09:45:54.861Z,7.23
2019-02-15T09:48:25.495Z,5.43
2019-02-15T09:50:56.368Z,4.97
2019-02-15T09:53:26.922Z,6.77
2019-02-15T09:55:57.464Z,5.80
2019-02-15T09:58:28.051Z,6.23
2019-02-15T10:00:58.727Z,8.07
2019-02-15T10:03:29.301Z,6.17
2019-02-15T10:05:59.839Z,6.23
2019-02-15T10:08:30.350Z,5.23
2019-02-15T10:11:01.502Z,6.80
2019-02-15T10:13:32.658Z,7.10
2019-02-15T10:16:03.358Z,5.90
2019-02-15T10:18:34.026Z,4.67
2019-02-15T10:21:05.503Z,8.87
2019-02-15T10:23:36.118Z,4.90
2019-02-15T10:26:06.768Z,7.93
2019-02-15T10:28:37.377Z,4.93
2019-02-15T10:31:08.310Z,8.73
2019-02-15T10:33:38.932Z,9.60
2019-02-15T10:36:09.473Z,6.53
2019-02-15T10:38:40.088Z,6.23
2019-02-15T10:41:10.978Z,6.63
2019-02-15T10:43:41.453Z,5.20
2019-02-15T10:46:11.916Z,5.93
2019-02-15T10:48:42.459Z,5.47
2019-02-15T10:51:13.026Z,4.80
2019-02-15T10:53:43.427Z,8.30
2019-02-15T10:56:14.076Z,5.70
2019-02-15T10:58:44.554Z,7.93
2019-02-15T11:01:15.167Z,4.27
2019-02-15T11:03:45.795Z,6.20
2019-02-15T11:06:16.347Z,6.50
2019-02-15T11:08:46.927Z,7.07
2019-02-15T11:11:17.549Z,6.67
2019-02-15T11:13:48.075Z,6.23
2019-02-15T11:16:18.605Z,6.33
2019-02-15T11:18:49.204Z,5.47
2019-02-15T11:21:20.486Z,6.60
2019-02-15T11:23:51.766Z,6.47
2019-02-15T11:26:24.796Z,4.97
2019-02-15T11:28:54.520Z,7.50
2019-02-15T11:31:25.215Z,5.33
2019-02-15T11:33:55.792Z,6.13
2019-02-15T11:36:26.447Z,5.00
2019-02-15T11:38:56.951Z,6.00
2019-02-15T11:41:27.585Z,7.03
2019-02-15T11:43:58.098Z,5.80
2019-02-15T11:46:29.456Z,5.93
2019-02-15T11:49:00.009Z,7.10
2019-02-15T11:51:30.580Z,5.30
2019-02-15T11:54:01.154Z,5.33
2019-02-15T11:56:32.069Z,5.63
2019-02-15T11:59:02.726Z,5.90
2019-02-15T12:01:33.427Z,5.03
2019-02-15T12:04:04.017Z,7.50
2019-02-15T12:06:35.575Z,7.40
2019-02-15T12:09:06.880Z,5.20
2019-02-15T12:11:37.523Z,8.53
2019-02-15T12:14:07.993Z,7.67
2019-02-15T12:16:38.714Z,5.60
2019-02-15T12:19:09.277Z,7.10
2019-02-15T12:21:42.211Z,9.63
2019-02-15T12:24:12.660Z,7.40
2019-02-15T12:26:43.238Z,8.03
2019-02-15T12:29:13.763Z,6.57
2019-02-15T12:31:44.429Z,9.17
2019-02-15T12:34:14.911Z,6.83
2019-02-15T12:36:45.485Z,6.53
2019-02-15T12:39:16.009Z,7.43
2019-02-15T12:41:46.584Z,6.93
2019-02-15T12:44:17.094Z,7.77
2019-02-15T12:46:48.048Z,8.43
2019-02-15T12:49:18.659Z,11.13
2019-02-15T12:51:49.163Z,6.47
2019-02-15T12:54:19.644Z,8.00
2019-02-15T12:56:50.255Z,7.33
2019-02-15T12:59:20.736Z,7.90
2019-02-15T13:01:51.114Z,6.87
2019-02-15T13:04:21.811Z,6.67
2019-02-15T13:06:52.450Z,8.17
2019-02-15T13:09:23.593Z,6.90
2019-02-15T13:11:54.050Z,6.83
2019-02-15T13:14:24.673Z,6.97
2019-02-15T13:16:55.266Z,6.80
2019-02-15T13:19:25.884Z,7.60
2019-02-15T13:21:57.365Z,8.17
2019-02-15T13:24:27.852Z,6.37
2019-02-15T13:26:58.531Z,8.47
2019-02-15T13:29:29.045Z,7.60
2019-02-15T13:31:59.616Z,7.37
2019-02-15T13:34:30.261Z,7.13
2019-02-15T13:37:00.842Z,10.13
2019-02-15T13:39:31.291Z,9.27
2019-02-15T13:42:01.873Z,6.67
2019-02-15T13:44:32.454Z,8.10
2019-02-15T13:47:02.996Z,5.77
2019-02-15T13:49:33.483Z,7.77
2019-02-15T13:52:04.670Z,5.83
2019-02-15T13:54:35.223Z,6.93
2019-02-15T13:57:05.966Z,8.50
2019-02-15T13:59:39.078Z,7.37
2019-02-15T14:02:09.845Z,7.37
2019-02-15T14:04:40.397Z,5.93
2019-02-15T14:07:19.076Z,8.97
2019-02-15T14:09:49.614Z,9.07
2019-02-15T14:12:20.154Z,7.57
2019-02-15T14:14:50.583Z,6.80
2019-02-15T14:17:21.174Z,7.27
2019-02-15T14:19:51.653Z,7.70
2019-02-15T14:22:23.222Z,9.90
2019-02-15T14:24:53.750Z,8.13
2019-02-15T14:27:24.285Z,8.10
2019-02-15T14:29:56.848Z,8.30
2019-02-15T14:32:26.918Z,8.47
2019-02-15T14:34:57.388Z,7.87
2019-02-15T14:37:27.954Z,11.07
2019-02-15T14:39:58.894Z,8.03
2019-02-15T14:42:29.422Z,10.33
2019-02-15T14:45:00.012Z,8.57
2019-02-15T14:47:31.742Z,9.97
2019-02-15T14:50:05.121Z,12.13
2019-02-15T14:52:35.670Z,6.93
2019-02-15T14:55:10.956Z,9.23
2019-02-15T14:57:43.057Z,10.20
2019-02-15T15:00:16.870Z,8.47
2019-02-15T15:02:47.448Z,12.87
2019-02-15T15:05:17.960Z,10.07
2019-02-15T15:07:48.427Z,8.60
2019-02-15T15:10:18.960Z,11.93
2019-02-15T15:12:49.429Z,10.37
2019-02-15T15:15:19.871Z,10.93
2019-02-15T15:17:50.310Z,11.80
2019-02-15T15:20:20.823Z,11.87
2019-02-15T15:22:52.492Z,10.30
2019-02-15T15:25:22.974Z,10.13
2019-02-15T15:27:53.514Z,14.17
2019-02-15T15:30:23.948Z,9.33
2019-02-15T15:32:54.381Z,9.17
2019-02-15T15:35:24.876Z,10.63
2019-02-15T15:37:55.325Z,10.90
2019-02-15T15:40:25.866Z,11.53
2019-02-15T15:42:56.327Z,12.27
2019-02-15T15:45:26.856Z,11.03
2019-02-15T15:48:00.810Z,12.00
2019-02-15T15:50:31.361Z,16.43
2019-02-15T15:53:02.553Z,15.00
2019-02-15T15:55:33.223Z,15.20
2019-02-15T15:58:03.856Z,11.43
2019-02-15T16:00:38.970Z,10.87
2019-02-15T16:03:06.667Z,11.70
2019-02-15T16:05:37.101Z,10.73
2019-02-15T16:08:07.803Z,12.23
2019-02-15T16:10:38.269Z,12.30
2019-02-15T16:13:09.103Z,11.30
2019-02-15T16:15:39.622Z,10.23
2019-02-15T16:18:10.220Z,12.70
2019-02-15T16:20:40.667Z,10.97
2019-02-15T16:23:11.872Z,11.43
2019-02-15T16:25:42.442Z,11.83
2019-02-15T16:28:12.876Z,12.63
2019-02-15T16:30:43.391Z,15.93
2019-02-15T16:33:13.874Z,11.10
2019-02-15T16:35:45.255Z,14.20
2019-02-15T16:38:16.646Z,15.07
2019-02-15T16:40:47.165Z,29.13
2019-02-15T16:43:17.887Z,21.23
2019-02-15T16:45:48.386Z,13.93
2019-02-15T16:48:18.856Z,16.17
2019-02-15T16:50:49.414Z,13.67
2019-02-15T16:53:19.954Z,15.23
2019-02-15T16:55:50.485Z,14.17
2019-02-15T16:58:21.361Z,17.47
2019-02-15T17:00:51.908Z,14.97
2019-02-15T17:03:22.486Z,22.20
2019-02-15T17:05:53.179Z,20.97
2019-02-15T17:08:23.722Z,27.80
2019-02-15T17:10:54.454Z,29.40
2019-02-15T17:13:24.975Z,30.67
2019-02-15T17:15:55.517Z,29.00
2019-02-15T17:18:25.994Z,31.87
2019-02-15T17:20:57.017Z,28.63
2019-02-15T17:23:28.727Z,32.33
2019-02-15T17:25:59.297Z,27.37
2019-02-15T17:28:29.749Z,26.43
2019-02-15T17:31:00.312Z,30.40
2019-02-15T17:33:31.613Z,30.70
2019-02-15T17:36:02.184Z,26.60
2019-02-15T17:38:32.741Z,28.17
2019-02-15T17:41:03.301Z,28.17
2019-02-15T17:43:34.719Z,27.87
2019-02-15T17:46:06.036Z,27.97
2019-02-15T17:48:36.617Z,29.33
2019-02-15T17:51:07.030Z,30.57
2019-02-15T17:53:37.463Z,32.40
2019-02-15T17:56:08.026Z,34.93
2019-02-15T17:58:39.802Z,33.43
2019-02-15T18:01:10.442Z,34.87
2019-02-15T18:03:41.675Z,32.57
2019-02-15T18:06:12.271Z,38.17
2019-02-15T18:08:42.781Z,39.20
2019-02-15T18:11:13.366Z,29.63
2019-02-15T18:13:43.827Z,33.60
2019-02-15T18:16:14.662Z,30.13
2019-02-15T18:18:45.561Z,26.70
2019-02-15T18:21:16.134Z,30.83
2019-02-15T18:23:47.495Z,34.77
2019-02-15T18:26:18.342Z,38.40
2019-02-15T18:28:48.740Z,38.33
2019-02-15T18:31:20.104Z,38.80
2019-02-15T18:33:50.677Z,41.50
2019-02-15T18:36:22.560Z,41.43
2019-02-15T18:38:53.127Z,44.50
2019-02-15T18:41:23.580Z,35.90
2019-02-15T18:43:57.034Z,36.60
2019-02-15T18:46:27.548Z,42.23
2019-02-15T18:48:57.947Z,35.77
2019-02-15T18:51:28.512Z,30.83
2019-02-15T18:53:58.919Z,33.83
2019-02-15T18:56:29.362Z,31.83
2019-02-15T18:58:59.901Z,33.63
2019-02-15T19:01:30.445Z,32.57
2019-02-15T19:04:01.402Z,32.00
2019-02-15T19:06:31.877Z,31.37
2019-02-15T19:09:02.453Z,33.23
2019-02-15T19:11:32.867Z,30.23
2019-02-15T19:14:03.633Z,29.13
2019-02-15T19:16:34.229Z,29.77
2019-02-15T19:19:04.846Z,29.27
2019-02-15T19:21:35.240Z,33.47
2019-02-15T19:24:06.510Z,27.73
2019-02-15T19:26:37.498Z,28.80
2019-02-15T19:29:09.466Z,27.10
2019-02-15T19:31:39.970Z,29.50
2019-02-15T19:34:10.639Z,32.10
2019-02-15T19:36:41.186Z,32.27
2019-02-15T19:39:12.195Z,28.43
2019-02-15T19:41:42.713Z,30.93
2019-02-15T19:44:13.264Z,36.67
2019-02-15T19:46:43.758Z,31.53
2019-02-15T19:49:14.362Z,34.50
2019-02-15T19:51:44.917Z,36.50
2019-02-15T19:54:16.711Z,37.97
2019-02-15T19:56:47.296Z,34.20
2019-02-15T19:59:18.218Z,32.87
2019-02-15T20:01:48.773Z,37.13
2019-02-15T20:04:20.343Z,38.17
2019-02-15T20:06:50.825Z,28.77
2019-02-15T20:09:22.784Z,29.47
2019-02-15T20:11:53.332Z,28.23
2019-02-15T20:14:23.927Z,32.60
2019-02-15T20:16:54.367Z,30.97
2019-02-15T20:19:26.640Z,30.77
2019-02-15T20:21:57.199Z,33.80
2019-02-15T20:24:28.574Z,30.57
2019-02-15T20:26:59.074Z,30.87
2019-02-15T20:29:30.215Z,34.23
2019-02-15T20:32:00.706Z,32.47
2019-02-15T20:34:31.899Z,28.83
2019-02-15T20:37:02.499Z,28.83
2019-02-15T20:39:33.122Z,32.30
2019-02-15T20:42:03.851Z,28.80
2019-02-15T20:44:34.431Z,32.60
2019-02-15T20:47:05.027Z,29.33
2019-02-15T20:49:35.579Z,27.27
2019-02-15T20:52:06.270Z,29.30
2019-02-15T20:54:36.841Z,31.30
2019-02-15T20:57:07.355Z,33.63
2019-02-15T20:59:37.763Z,28.77
2019-02-15T21:02:08.441Z,35.60
2019-02-15T21:04:39.013Z,37.47
2019-02-15T21:07:09.487Z,33.30
2019-02-15T21:09:40.059Z,31.50
2019-02-15T21:12:10.463Z,38.30
2019-02-15T21:14:41.393Z,36.37
2019-02-15T21:17:11.842Z,34.10
2019-02-15T21:19:42.314Z,29.53
2019-02-15T21:22:12.823Z,34.77
2019-02-15T21:24:44.178Z,35.70
2019-02-15T21:27:14.654Z,30.00
2019-02-15T21:29:45.223Z,37.90
2019-02-15T21:32:15.768Z,37.83
2019-02-15T21:34:46.232Z,36.93
2019-02-15T21:37:16.726Z,36.43
2019-02-15T21:39:47.128Z,37.10
2019-02-15T21:42:17.718Z,40.53
2019-02-15T21:44:48.300Z,34.07
2019-02-15T21:47:18.692Z,35.63
2019-02-15T21:49:49.118Z,33.43
2019-02-15T21:52:20.628Z,42.03
2019-02-15T21:54:51.265Z,32.53
2019-02-15T21:57:21.818Z,37.07
2019-02-15T21:59:52.319Z,32.43
2019-02-15T22:02:22.971Z,30.83
2019-02-15T22:04:56.124Z,40.77
2019-02-15T22:07:26.644Z,33.27
2019-02-15T22:09:57.080Z,34.90
2019-02-15T22:12:27.498Z,29.17
2019-02-15T22:14:57.975Z,37.63
2019-02-15T22:17:28.528Z,36.00
2019-02-15T22:20:00.751Z,33.10
2019-02-15T22:22:31.156Z,39.10
2019-02-15T22:25:02.408Z,32.00
2019-02-15T22:27:32.924Z,35.30
2019-02-15T22:30:04.867Z,35.63
2019-02-15T22:32:35.371Z,36.03
2019-02-15T22:35:07.392Z,35.63
2019-02-15T22:37:37.947Z,31.37
2019-02-15T22:40:29.928Z,34.43
2019-02-15T22:43:04.822Z,29.07
2019-02-15T22:45:35.381Z,27.03
2019-02-15T22:48:05.925Z,27.97
2019-02-15T22:50:36.596Z,27.80
2019-02-15T22:53:07.220Z,28.13
2019-02-15T22:55:37.883Z,28.47
2019-02-15T22:58:08.345Z,32.90
2019-02-15T23:00:50.254Z,31.53
2019-02-15T23:03:24.199Z,33.83
2019-02-15T23:05:54.947Z,29.10
2019-02-15T23:08:25.502Z,28.70
2019-02-15T23:10:57.563Z,29.50
2019-02-15T23:13:33.930Z,27.07
2019-02-15T23:16:04.560Z,29.77
2019-02-15T23:18:35.006Z,27.30
2019-02-15T23:21:05.722Z,29.50
2019-02-15T23:23:36.287Z,27.90
2019-02-15T23:26:07.597Z,31.67
2019-02-15T23:28:38.010Z,31.10
2019-02-15T23:31:08.695Z,28.27
2019-02-15T23:33:39.217Z,27.83
2019-02-15T23:36:09.635Z,24.93
2019-02-15T23:38:40.023Z,34.83
2019-02-15T23:41:10.586Z,28.70
2019-02-15T23:43:41.115Z,28.90
2019-02-15T23:46:11.846Z,31.30
2019-02-15T23:48:42.471Z,32.90
2019-02-15T23:51:13.138Z,35.60
2019-02-15T23:53:43.634Z,34.90
2019-02-15T23:56:14.301Z,36.17
2019-02-15T23:58:44.723Z,42.60
